Terminal Aerodrome Forecast
Issued by NWS Cleveland, OH

Home | Current Version | Previous Version | Text Only | Print | Product List | Glossary Off
Versions: 1 2 3 4 5 6 7 8 9 10 11 12 13 14 15 16 17 18 19 20 21 22

000
FTUS41 KCLE 122300 RRA
TAFTOL
TAF
KTOL 122342Z 1300/1324 06004KT P6SM BKN035 OVC045
     FM130800 27006KT 5SM -RA BR OVC028
     FM131200 28012G20KT P6SM OVC025
     FM131800 32008KT P6SM BKN035=

USA.gov is the U.S. government's official web portal to all federal, state and local government web resources and services.